sensor_id;sensor_type;location;lat;lon;timestamp;P1;durP1;ratioP1;P2;durP2;ratioP2
55148;SDS011;49539;48.160;11.530;2022-08-07T00:01:43;16.38;;;9.95;;
55148;SDS011;49539;48.160;11.530;2022-08-07T00:04:08;16.90;;;10.18;;
55148;SDS011;49539;48.160;11.530;2022-08-07T00:06:34;13.90;;;9.23;;
55148;SDS011;49539;48.160;11.530;2022-08-07T00:09:03;14.93;;;8.45;;
55148;SDS011;49539;48.160;11.530;2022-08-07T00:11:29;12.55;;;7.75;;
55148;SDS011;49539;48.160;11.530;2022-08-07T00:13:54;10.75;;;7.50;;
55148;SDS011;49539;48.160;11.530;2022-08-07T00:16:20;14.18;;;8.57;;
55148;SDS011;49539;48.160;11.530;2022-08-07T00:18:45;13.40;;;8.52;;
55148;SDS011;49539;48.160;11.530;2022-08-07T00:21:11;9.45;;;6.35;;
55148;SDS011;49539;48.160;11.530;2022-08-07T00:23:37;12.23;;;7.40;;
55148;SDS011;49539;48.160;11.530;2022-08-07T00:26:04;12.07;;;7.22;;
55148;SDS011;49539;48.160;11.530;2022-08-07T00:28:31;12.07;;;7.60;;
55148;SDS011;49539;48.160;11.530;2022-08-07T00:30:58;13.07;;;7.13;;
55148;SDS011;49539;48.160;11.530;2022-08-07T00:33:23;10.98;;;6.82;;
55148;SDS011;49539;48.160;11.530;2022-08-07T00:35:52;9.25;;;5.55;;
55148;SDS011;49539;48.160;11.530;2022-08-07T00:38:19;9.82;;;5.70;;
55148;SDS011;49539;48.160;11.530;2022-08-07T00:40:44;10.68;;;6.38;;
55148;SDS011;49539;48.160;11.530;2022-08-07T00:43:10;10.40;;;5.72;;
55148;SDS011;49539;48.160;11.530;2022-08-07T00:45:37;9.93;;;5.43;;
55148;SDS011;49539;48.160;11.530;2022-08-07T00:48:04;10.05;;;5.60;;
55148;SDS011;49539;48.160;11.530;2022-08-07T00:50:31;11.85;;;5.57;;
55148;SDS011;49539;48.160;11.530;2022-08-07T00:52:57;9.20;;;4.55;;
55148;SDS011;49539;48.160;11.530;2022-08-07T00:55:22;9.48;;;5.00;;
55148;SDS011;49539;48.160;11.530;2022-08-07T00:57:48;6.72;;;4.72;;
55148;SDS011;49539;48.160;11.530;2022-08-07T01:00:13;8.68;;;5.68;;
55148;SDS011;49539;48.160;11.530;2022-08-07T01:02:40;7.70;;;4.35;;
55148;SDS011;49539;48.160;11.530;2022-08-07T01:05:07;8.57;;;4.60;;
55148;SDS011;49539;48.160;11.530;2022-08-07T01:07:34;9.00;;;5.38;;
55148;SDS011;49539;48.160;11.530;2022-08-07T01:10:00;6.85;;;3.97;;
55148;SDS011;49539;48.160;11.530;2022-08-07T01:12:25;7.32;;;4.10;;
55148;SDS011;49539;48.160;11.530;2022-08-07T01:14:52;7.35;;;4.40;;
55148;SDS011;49539;48.160;11.530;2022-08-07T01:17:17;6.75;;;3.95;;
55148;SDS011;49539;48.160;11.530;2022-08-07T01:19:43;6.18;;;3.75;;
55148;SDS011;49539;48.160;11.530;2022-08-07T01:22:09;7.82;;;4.60;;
55148;SDS011;49539;48.160;11.530;2022-08-07T01:24:35;6.70;;;4.30;;
55148;SDS011;49539;48.160;11.530;2022-08-07T01:27:01;7.00;;;4.13;;
55148;SDS011;49539;48.160;11.530;2022-08-07T01:29:27;8.50;;;4.22;;
55148;SDS011;49539;48.160;11.530;2022-08-07T01:31:54;6.35;;;4.05;;
55148;SDS011;49539;48.160;11.530;2022-08-07T01:34:20;7.35;;;4.45;;
55148;SDS011;49539;48.160;11.530;2022-08-07T01:36:46;7.07;;;3.88;;
55148;SDS011;49539;48.160;11.530;2022-08-07T01:39:12;7.68;;;5.10;;
55148;SDS011;49539;48.160;11.530;2022-08-07T01:41:38;8.80;;;4.95;;
55148;SDS011;49539;48.160;11.530;2022-08-07T01:44:04;7.03;;;4.57;;
55148;SDS011;49539;48.160;11.530;2022-08-07T01:46:30;9.57;;;4.93;;
55148;SDS011;49539;48.160;11.530;2022-08-07T01:48:56;9.05;;;5.15;;
55148;SDS011;49539;48.160;11.530;2022-08-07T01:51:22;7.68;;;4.57;;
55148;SDS011;49539;48.160;11.530;2022-08-07T01:53:50;8.70;;;5.03;;
55148;SDS011;49539;48.160;11.530;2022-08-07T01:56:42;6.53;;;4.47;;
55148;SDS011;49539;48.160;11.530;2022-08-07T01:59:23;10.00;;;5.20;;
55148;SDS011;49539;48.160;11.530;2022-08-07T02:01:53;6.80;;;4.93;;
55148;SDS011;49539;48.160;11.530;2022-08-07T02:04:24;10.23;;;4.60;;
55148;SDS011;49539;48.160;11.530;2022-08-07T02:06:53;8.13;;;4.95;;
55148;SDS011;49539;48.160;11.530;2022-08-07T02:09:21;8.68;;;4.75;;
55148;SDS011;49539;48.160;11.530;2022-08-07T02:11:49;6.45;;;3.95;;
55148;SDS011;49539;48.160;11.530;2022-08-07T02:14:17;5.90;;;3.50;;
55148;SDS011;49539;48.160;11.530;2022-08-07T02:16:45;6.65;;;4.20;;
55148;SDS011;49539;48.160;11.530;2022-08-07T02:19:13;5.53;;;3.60;;
55148;SDS011;49539;48.160;11.530;2022-08-07T02:21:41;7.10;;;4.45;;
55148;SDS011;49539;48.160;11.530;2022-08-07T02:24:07;6.30;;;3.92;;
55148;SDS011;49539;48.160;11.530;2022-08-07T02:26:34;6.53;;;4.25;;
55148;SDS011;49539;48.160;11.530;2022-08-07T02:29:02;8.27;;;4.60;;
55148;SDS011;49539;48.160;11.530;2022-08-07T02:31:30;5.45;;;3.42;;
55148;SDS011;49539;48.160;11.530;2022-08-07T02:33:57;6.47;;;3.42;;
55148;SDS011;49539;48.160;11.530;2022-08-07T02:36:25;8.60;;;3.47;;
55148;SDS011;49539;48.160;11.530;2022-08-07T02:38:52;9.98;;;4.00;;
55148;SDS011;49539;48.160;11.530;2022-08-07T02:41:20;8.90;;;4.82;;
55148;SDS011;49539;48.160;11.530;2022-08-07T02:43:46;6.55;;;4.13;;
55148;SDS011;49539;48.160;11.530;2022-08-07T02:46:14;7.43;;;3.97;;
55148;SDS011;49539;48.160;11.530;2022-08-07T02:48:42;8.93;;;4.28;;
55148;SDS011;49539;48.160;11.530;2022-08-07T02:51:09;8.68;;;5.35;;
55148;SDS011;49539;48.160;11.530;2022-08-07T02:53:37;7.07;;;4.65;;
55148;SDS011;49539;48.160;11.530;2022-08-07T02:56:08;8.82;;;5.43;;
55148;SDS011;49539;48.160;11.530;2022-08-07T02:58:37;8.05;;;5.32;;
55148;SDS011;49539;48.160;11.530;2022-08-07T03:01:04;8.27;;;4.85;;
55148;SDS011;49539;48.160;11.530;2022-08-07T03:03:32;8.50;;;4.65;;
55148;SDS011;49539;48.160;11.530;2022-08-07T03:06:00;11.10;;;5.13;;
55148;SDS011;49539;48.160;11.530;2022-08-07T03:08:26;9.68;;;4.82;;
55148;SDS011;49539;48.160;11.530;2022-08-07T03:10:52;8.50;;;5.32;;
55148;SDS011;49539;48.160;11.530;2022-08-07T03:13:19;14.18;;;5.22;;
55148;SDS011;49539;48.160;11.530;2022-08-07T03:15:45;13.00;;;5.15;;
55148;SDS011;49539;48.160;11.530;2022-08-07T03:18:12;10.00;;;5.25;;
55148;SDS011;49539;48.160;11.530;2022-08-07T03:20:39;6.97;;;4.38;;
55148;SDS011;49539;48.160;11.530;2022-08-07T03:23:05;7.88;;;5.10;;
55148;SDS011;49539;48.160;11.530;2022-08-07T03:25:33;9.00;;;5.05;;
55148;SDS011;49539;48.160;11.530;2022-08-07T03:28:00;8.10;;;5.03;;
55148;SDS011;49539;48.160;11.530;2022-08-07T03:30:28;8.48;;;4.88;;
55148;SDS011;49539;48.160;11.530;2022-08-07T03:32:56;5.90;;;4.25;;
55148;SDS011;49539;48.160;11.530;2022-08-07T03:35:23;7.55;;;4.70;;
55148;SDS011;49539;48.160;11.530;2022-08-07T03:37:55;8.63;;;4.60;;
55148;SDS011;49539;48.160;11.530;2022-08-07T03:40:23;10.20;;;5.38;;
55148;SDS011;49539;48.160;11.530;2022-08-07T03:42:50;8.63;;;5.13;;
55148;SDS011;49539;48.160;11.530;2022-08-07T03:45:16;8.93;;;5.60;;
55148;SDS011;49539;48.160;11.530;2022-08-07T03:47:43;8.52;;;5.70;;
55148;SDS011;49539;48.160;11.530;2022-08-07T03:50:09;7.18;;;5.13;;
55148;SDS011;49539;48.160;11.530;2022-08-07T03:52:35;7.70;;;4.70;;
55148;SDS011;49539;48.160;11.530;2022-08-07T03:55:01;7.18;;;4.82;;
55148;SDS011;49539;48.160;11.530;2022-08-07T03:57:28;8.40;;;5.55;;
55148;SDS011;49539;48.160;11.530;2022-08-07T03:59:55;10.48;;;5.72;;
55148;SDS011;49539;48.160;11.530;2022-08-07T04:02:21;8.13;;;5.57;;
55148;SDS011;49539;48.160;11.530;2022-08-07T04:04:48;7.32;;;4.75;;
55148;SDS011;49539;48.160;11.530;2022-08-07T04:07:20;10.35;;;5.75;;
55148;SDS011;49539;48.160;11.530;2022-08-07T04:09:45;7.28;;;5.22;;
55148;SDS011;49539;48.160;11.530;2022-08-07T04:12:15;10.63;;;6.60;;
55148;SDS011;49539;48.160;11.530;2022-08-07T04:14:41;8.43;;;5.60;;
55148;SDS011;49539;48.160;11.530;2022-08-07T04:17:08;9.73;;;5.28;;
55148;SDS011;49539;48.160;11.530;2022-08-07T04:19:34;7.55;;;4.97;;
55148;SDS011;49539;48.160;11.530;2022-08-07T04:22:00;9.65;;;6.22;;
55148;SDS011;49539;48.160;11.530;2022-08-07T04:24:27;10.05;;;4.82;;
55148;SDS011;49539;48.160;11.530;2022-08-07T04:26:52;8.45;;;5.53;;
55148;SDS011;49539;48.160;11.530;2022-08-07T04:29:18;8.10;;;5.57;;
55148;SDS011;49539;48.160;11.530;2022-08-07T04:31:43;10.00;;;6.15;;
55148;SDS011;49539;48.160;11.530;2022-08-07T04:34:09;8.02;;;5.05;;
55148;SDS011;49539;48.160;11.530;2022-08-07T04:36:35;8.77;;;5.35;;
55148;SDS011;49539;48.160;11.530;2022-08-07T04:39:01;8.80;;;5.22;;
55148;SDS011;49539;48.160;11.530;2022-08-07T04:41:28;7.80;;;5.20;;
55148;SDS011;49539;48.160;11.530;2022-08-07T04:43:54;8.00;;;5.07;;
55148;SDS011;49539;48.160;11.530;2022-08-07T04:49:18;8.10;;;4.75;;
55148;SDS011;49539;48.160;11.530;2022-08-07T04:59:57;8.90;;;5.65;;
55148;SDS011;49539;48.160;11.530;2022-08-07T05:02:33;7.78;;;4.95;;
55148;SDS011;49539;48.160;11.530;2022-08-07T05:05:11;7.95;;;4.88;;
55148;SDS011;49539;48.160;11.530;2022-08-07T05:07:49;6.25;;;3.83;;
55148;SDS011;49539;48.160;11.530;2022-08-07T05:13:02;5.53;;;3.40;;
55148;SDS011;49539;48.160;11.530;2022-08-07T05:15:31;6.82;;;4.28;;
55148;SDS011;49539;48.160;11.530;2022-08-07T05:18:06;6.83;;;4.03;;
55148;SDS011;49539;48.160;11.530;2022-08-07T05:20:37;6.63;;;4.22;;
55148;SDS011;49539;48.160;11.530;2022-08-07T05:26:04;6.38;;;3.55;;
55148;SDS011;49539;48.160;11.530;2022-08-07T05:28:35;5.68;;;3.85;;
55148;SDS011;49539;48.160;11.530;2022-08-07T05:31:02;7.80;;;3.75;;
55148;SDS011;49539;48.160;11.530;2022-08-07T05:33:29;4.60;;;2.95;;
55148;SDS011;49539;48.160;11.530;2022-08-07T05:35:57;7.03;;;4.05;;
55148;SDS011;49539;48.160;11.530;2022-08-07T05:38:23;5.78;;;3.00;;
55148;SDS011;49539;48.160;11.530;2022-08-07T05:40:50;5.15;;;3.10;;
55148;SDS011;49539;48.160;11.530;2022-08-07T05:43:16;5.07;;;3.25;;
55148;SDS011;49539;48.160;11.530;2022-08-07T05:45:42;3.95;;;2.70;;
55148;SDS011;49539;48.160;11.530;2022-08-07T05:48:08;4.68;;;3.15;;
55148;SDS011;49539;48.160;11.530;2022-08-07T05:50:34;5.10;;;2.92;;
55148;SDS011;49539;48.160;11.530;2022-08-07T05:53:01;4.03;;;2.90;;
55148;SDS011;49539;48.160;11.530;2022-08-07T05:55:27;6.05;;;3.58;;
55148;SDS011;49539;48.160;11.530;2022-08-07T05:57:53;5.32;;;3.08;;
55148;SDS011;49539;48.160;11.530;2022-08-07T06:00:20;7.35;;;3.00;;
55148;SDS011;49539;48.160;11.530;2022-08-07T06:02:48;4.47;;;2.72;;
55148;SDS011;49539;48.160;11.530;2022-08-07T06:05:15;5.80;;;2.30;;
55148;SDS011;49539;48.160;11.530;2022-08-07T06:07:42;6.63;;;2.97;;
55148;SDS011;49539;48.160;11.530;2022-08-07T06:10:08;5.53;;;2.72;;
55148;SDS011;49539;48.160;11.530;2022-08-07T06:12:35;8.10;;;2.42;;
55148;SDS011;49539;48.160;11.530;2022-08-07T06:15:01;4.72;;;2.20;;
55148;SDS011;49539;48.160;11.530;2022-08-07T06:17:27;3.78;;;2.47;;
55148;SDS011;49539;48.160;11.530;2022-08-07T06:19:53;3.15;;;2.35;;
55148;SDS011;49539;48.160;11.530;2022-08-07T06:22:19;3.17;;;2.15;;
55148;SDS011;49539;48.160;11.530;2022-08-07T06:24:46;5.53;;;2.47;;
55148;SDS011;49539;48.160;11.530;2022-08-07T06:27:21;7.80;;;2.25;;
55148;SDS011;49539;48.160;11.530;2022-08-07T06:29:47;3.50;;;2.08;;
55148;SDS011;49539;48.160;11.530;2022-08-07T06:32:12;4.32;;;2.47;;
55148;SDS011;49539;48.160;11.530;2022-08-07T06:34:37;3.85;;;2.72;;
55148;SDS011;49539;48.160;11.530;2022-08-07T06:37:04;4.07;;;2.30;;
55148;SDS011;49539;48.160;11.530;2022-08-07T06:39:29;3.53;;;2.30;;
55148;SDS011;49539;48.160;11.530;2022-08-07T06:42:03;3.92;;;2.17;;
55148;SDS011;49539;48.160;11.530;2022-08-07T06:44:32;3.58;;;2.10;;
55148;SDS011;49539;48.160;11.530;2022-08-07T06:46:59;4.90;;;2.22;;
55148;SDS011;49539;48.160;11.530;2022-08-07T06:49:25;4.03;;;2.30;;
55148;SDS011;49539;48.160;11.530;2022-08-07T06:51:51;6.95;;;2.45;;
55148;SDS011;49539;48.160;11.530;2022-08-07T06:54:19;4.63;;;2.53;;
55148;SDS011;49539;48.160;11.530;2022-08-07T06:56:49;3.15;;;2.10;;
55148;SDS011;49539;48.160;11.530;2022-08-07T06:59:23;3.10;;;1.83;;
55148;SDS011;49539;48.160;11.530;2022-08-07T07:01:51;2.90;;;2.17;;
55148;SDS011;49539;48.160;11.530;2022-08-07T07:04:18;2.92;;;2.13;;
55148;SDS011;49539;48.160;11.530;2022-08-07T07:06:44;2.65;;;1.95;;
55148;SDS011;49539;48.160;11.530;2022-08-07T07:09:20;3.22;;;1.70;;
55148;SDS011;49539;48.160;11.530;2022-08-07T07:12:08;3.53;;;2.25;;
55148;SDS011;49539;48.160;11.530;2022-08-07T07:14:38;3.50;;;2.25;;
55148;SDS011;49539;48.160;11.530;2022-08-07T07:20:08;3.70;;;2.25;;
55148;SDS011;49539;48.160;11.530;2022-08-07T07:22:38;3.83;;;2.50;;
55148;SDS011;49539;48.160;11.530;2022-08-07T07:25:06;3.72;;;2.33;;
55148;SDS011;49539;48.160;11.530;2022-08-07T07:27:35;6.30;;;2.35;;
55148;SDS011;49539;48.160;11.530;2022-08-07T07:30:06;2.80;;;2.05;;
55148;SDS011;49539;48.160;11.530;2022-08-07T07:32:33;5.43;;;2.38;;
55148;SDS011;49539;48.160;11.530;2022-08-07T07:35:03;8.05;;;2.97;;
55148;SDS011;49539;48.160;11.530;2022-08-07T07:37:30;4.22;;;2.28;;
55148;SDS011;49539;48.160;11.530;2022-08-07T07:39:58;3.47;;;1.90;;
55148;SDS011;49539;48.160;11.530;2022-08-07T07:42:29;2.50;;;2.00;;
55148;SDS011;49539;48.160;11.530;2022-08-07T07:44:57;4.55;;;2.05;;
55148;SDS011;49539;48.160;11.530;2022-08-07T07:47:25;2.58;;;1.60;;
55148;SDS011;49539;48.160;11.530;2022-08-07T07:49:52;4.18;;;2.13;;
55148;SDS011;49539;48.160;11.530;2022-08-07T07:52:20;3.95;;;2.30;;
55148;SDS011;49539;48.160;11.530;2022-08-07T07:54:47;3.60;;;2.15;;
55148;SDS011;49539;48.160;11.530;2022-08-07T07:57:13;3.67;;;1.98;;
55148;SDS011;49539;48.160;11.530;2022-08-07T07:59:43;2.78;;;1.73;;
55148;SDS011;49539;48.160;11.530;2022-08-07T08:02:09;2.80;;;1.73;;
55148;SDS011;49539;48.160;11.530;2022-08-07T08:04:35;4.88;;;1.90;;
55148;SDS011;49539;48.160;11.530;2022-08-07T08:07:02;2.85;;;1.90;;
55148;SDS011;49539;48.160;11.530;2022-08-07T08:09:28;3.15;;;2.13;;
55148;SDS011;49539;48.160;11.530;2022-08-07T08:11:56;2.70;;;1.80;;
55148;SDS011;49539;48.160;11.530;2022-08-07T08:14:22;4.07;;;2.17;;
55148;SDS011;49539;48.160;11.530;2022-08-07T08:16:48;2.83;;;2.00;;
55148;SDS011;49539;48.160;11.530;2022-08-07T08:19:16;3.03;;;1.75;;
55148;SDS011;49539;48.160;11.530;2022-08-07T08:21:48;20.33;;;2.00;;
55148;SDS011;49539;48.160;11.530;2022-08-07T08:24:36;1.70;;;1.40;;
55148;SDS011;49539;48.160;11.530;2022-08-07T08:27:24;3.72;;;2.10;;
55148;SDS011;49539;48.160;11.530;2022-08-07T08:29:53;3.00;;;1.85;;
55148;SDS011;49539;48.160;11.530;2022-08-07T08:32:25;2.80;;;1.92;;
55148;SDS011;49539;48.160;11.530;2022-08-07T08:34:56;2.78;;;1.98;;
55148;SDS011;49539;48.160;11.530;2022-08-07T08:37:24;7.40;;;1.80;;
55148;SDS011;49539;48.160;11.530;2022-08-07T08:39:53;2.17;;;1.73;;
55148;SDS011;49539;48.160;11.530;2022-08-07T08:42:39;5.35;;;2.20;;
55148;SDS011;49539;48.160;11.530;2022-08-07T08:51:24;5.72;;;2.00;;
55148;SDS011;49539;48.160;11.530;2022-08-07T08:54:07;4.00;;;1.60;;
55148;SDS011;49539;48.160;11.530;2022-08-07T08:56:40;3.28;;;2.00;;
55148;SDS011;49539;48.160;11.530;2022-08-07T08:59:28;4.30;;;1.85;;
55148;SDS011;49539;48.160;11.530;2022-08-07T09:13:28;2.83;;;1.67;;
55148;SDS011;49539;48.160;11.530;2022-08-07T09:18:47;4.25;;;2.20;;
55148;SDS011;49539;48.160;11.530;2022-08-07T09:29:54;2.30;;;1.63;;
55148;SDS011;49539;48.160;11.530;2022-08-07T09:43:25;3.03;;;1.70;;
55148;SDS011;49539;48.160;11.530;2022-08-07T09:46:03;4.68;;;1.67;;
55148;SDS011;49539;48.160;11.530;2022-08-07T09:54:22;2.78;;;1.80;;
55148;SDS011;49539;48.160;11.530;2022-08-07T09:59:32;3.75;;;2.03;;
55148;SDS011;49539;48.160;11.530;2022-08-07T10:12:49;2.53;;;1.70;;
55148;SDS011;49539;48.160;11.530;2022-08-07T10:30:03;4.40;;;2.03;;
55148;SDS011;49539;48.160;11.530;2022-08-07T10:35:22;3.97;;;1.65;;
55148;SDS011;49539;48.160;11.530;2022-08-07T10:38:02;3.08;;;1.77;;
55148;SDS011;49539;48.160;11.530;2022-08-07T10:43:18;3.22;;;1.80;;
55148;SDS011;49539;48.160;11.530;2022-08-07T10:45:48;2.20;;;1.48;;
55148;SDS011;49539;48.160;11.530;2022-08-07T10:51:21;5.50;;;2.15;;
55148;SDS011;49539;48.160;11.530;2022-08-07T10:56:55;4.55;;;1.88;;
55148;SDS011;49539;48.160;11.530;2022-08-07T11:08:01;4.70;;;2.13;;
55148;SDS011;49539;48.160;11.530;2022-08-07T11:13:44;2.08;;;1.38;;
55148;SDS011;49539;48.160;11.530;2022-08-07T11:16:20;3.75;;;2.00;;
55148;SDS011;49539;48.160;11.530;2022-08-07T11:18:53;5.03;;;2.03;;
55148;SDS011;49539;48.160;11.530;2022-08-07T11:21:33;3.25;;;1.67;;
55148;SDS011;49539;48.160;11.530;2022-08-07T11:24:11;2.97;;;1.80;;
55148;SDS011;49539;48.160;11.530;2022-08-07T11:27:07;3.47;;;2.10;;
55148;SDS011;49539;48.160;11.530;2022-08-07T11:32:29;2.45;;;1.85;;
55148;SDS011;49539;48.160;11.530;2022-08-07T11:35:07;3.22;;;1.70;;
55148;SDS011;49539;48.160;11.530;2022-08-07T11:43:07;2.17;;;1.67;;
55148;SDS011;49539;48.160;11.530;2022-08-07T11:59:52;3.35;;;1.90;;
55148;SDS011;49539;48.160;11.530;2022-08-07T12:08:31;2.78;;;1.80;;
55148;SDS011;49539;48.160;11.530;2022-08-07T12:16:27;3.22;;;1.92;;
55148;SDS011;49539;48.160;11.530;2022-08-07T12:22:05;2.33;;;1.60;;
55148;SDS011;49539;48.160;11.530;2022-08-07T12:28:14;5.13;;;1.90;;
55148;SDS011;49539;48.160;11.530;2022-08-07T12:30:46;2.00;;;1.55;;
55148;SDS011;49539;48.160;11.530;2022-08-07T12:33:16;3.08;;;1.70;;
55148;SDS011;49539;48.160;11.530;2022-08-07T12:35:46;2.90;;;1.83;;
55148;SDS011;49539;48.160;11.530;2022-08-07T12:38:15;6.47;;;1.90;;
55148;SDS011;49539;48.160;11.530;2022-08-07T12:40:42;3.53;;;1.63;;
55148;SDS011;49539;48.160;11.530;2022-08-07T12:43:09;1.83;;;1.42;;
55148;SDS011;49539;48.160;11.530;2022-08-07T12:45:42;2.92;;;1.48;;
55148;SDS011;49539;48.160;11.530;2022-08-07T12:48:17;2.50;;;1.58;;
55148;SDS011;49539;48.160;11.530;2022-08-07T12:53:36;3.47;;;1.90;;
55148;SDS011;49539;48.160;11.530;2022-08-07T12:56:09;2.83;;;1.70;;
55148;SDS011;49539;48.160;11.530;2022-08-07T12:58:43;2.00;;;1.27;;
55148;SDS011;49539;48.160;11.530;2022-08-07T13:11:38;3.40;;;2.00;;
55148;SDS011;49539;48.160;11.530;2022-08-07T13:17:16;1.85;;;1.25;;
55148;SDS011;49539;48.160;11.530;2022-08-07T13:19:59;2.33;;;1.40;;
55148;SDS011;49539;48.160;11.530;2022-08-07T13:22:40;1.92;;;1.40;;
55148;SDS011;49539;48.160;11.530;2022-08-07T13:25:17;4.53;;;1.48;;
55148;SDS011;49539;48.160;11.530;2022-08-07T13:27:54;1.70;;;1.30;;
55148;SDS011;49539;48.160;11.530;2022-08-07T13:30:25;4.38;;;1.30;;
55148;SDS011;49539;48.160;11.530;2022-08-07T13:33:08;1.90;;;1.40;;
55148;SDS011;49539;48.160;11.530;2022-08-07T13:35:47;2.13;;;1.45;;
55148;SDS011;49539;48.160;11.530;2022-08-07T13:38:20;2.25;;;1.45;;
55148;SDS011;49539;48.160;11.530;2022-08-07T13:43:23;2.30;;;1.48;;
55148;SDS011;49539;48.160;11.530;2022-08-07T13:45:51;3.20;;;1.67;;
55148;SDS011;49539;48.160;11.530;2022-08-07T13:48:20;1.38;;;1.20;;
55148;SDS011;49539;48.160;11.530;2022-08-07T13:50:48;2.90;;;1.30;;
55148;SDS011;49539;48.160;11.530;2022-08-07T13:53:22;2.63;;;1.58;;
55148;SDS011;49539;48.160;11.530;2022-08-07T13:55:52;1.90;;;1.40;;
55148;SDS011;49539;48.160;11.530;2022-08-07T13:58:22;4.05;;;1.40;;
55148;SDS011;49539;48.160;11.530;2022-08-07T14:01:08;2.20;;;1.10;;
55148;SDS011;49539;48.160;11.530;2022-08-07T14:03:39;2.55;;;1.30;;
55148;SDS011;49539;48.160;11.530;2022-08-07T14:06:09;3.28;;;1.60;;
55148;SDS011;49539;48.160;11.530;2022-08-07T14:08:42;2.50;;;1.20;;
55148;SDS011;49539;48.160;11.530;2022-08-07T14:11:14;1.67;;;0.88;;
55148;SDS011;49539;48.160;11.530;2022-08-07T14:13:41;1.88;;;1.30;;
55148;SDS011;49539;48.160;11.530;2022-08-07T14:16:12;2.65;;;1.30;;
55148;SDS011;49539;48.160;11.530;2022-08-07T14:18:48;3.95;;;1.58;;
55148;SDS011;49539;48.160;11.530;2022-08-07T14:21:22;1.45;;;1.20;;
55148;SDS011;49539;48.160;11.530;2022-08-07T14:23:52;2.10;;;1.40;;
55148;SDS011;49539;48.160;11.530;2022-08-07T14:26:22;4.35;;;1.58;;
55148;SDS011;49539;48.160;11.530;2022-08-07T14:28:53;2.03;;;1.50;;
55148;SDS011;49539;48.160;11.530;2022-08-07T14:31:22;3.80;;;1.30;;
55148;SDS011;49539;48.160;11.530;2022-08-07T14:33:50;2.22;;;1.48;;
55148;SDS011;49539;48.160;11.530;2022-08-07T14:36:17;1.73;;;1.15;;
55148;SDS011;49539;48.160;11.530;2022-08-07T14:38:44;3.80;;;1.92;;
55148;SDS011;49539;48.160;11.530;2022-08-07T14:41:15;1.50;;;1.30;;
55148;SDS011;49539;48.160;11.530;2022-08-07T14:43:49;2.97;;;1.60;;
55148;SDS011;49539;48.160;11.530;2022-08-07T14:46:17;2.47;;;1.42;;
55148;SDS011;49539;48.160;11.530;2022-08-07T14:48:45;1.80;;;1.45;;
55148;SDS011;49539;48.160;11.530;2022-08-07T14:51:16;2.03;;;1.45;;
55148;SDS011;49539;48.160;11.530;2022-08-07T14:53:45;2.83;;;1.33;;
55148;SDS011;49539;48.160;11.530;2022-08-07T14:56:14;2.00;;;1.25;;
55148;SDS011;49539;48.160;11.530;2022-08-07T14:58:47;2.47;;;1.27;;
55148;SDS011;49539;48.160;11.530;2022-08-07T15:01:17;10.07;;;1.20;;
55148;SDS011;49539;48.160;11.530;2022-08-07T15:03:44;1.55;;;1.25;;
55148;SDS011;49539;48.160;11.530;2022-08-07T15:06:11;2.25;;;1.52;;
55148;SDS011;49539;48.160;11.530;2022-08-07T15:08:40;2.67;;;1.38;;
55148;SDS011;49539;48.160;11.530;2022-08-07T15:11:16;2.58;;;1.80;;
55148;SDS011;49539;48.160;11.530;2022-08-07T15:13:48;4.45;;;1.55;;
55148;SDS011;49539;48.160;11.530;2022-08-07T15:16:15;3.50;;;1.67;;
55148;SDS011;49539;48.160;11.530;2022-08-07T15:18:47;3.28;;;1.67;;
55148;SDS011;49539;48.160;11.530;2022-08-07T15:21:18;2.75;;;1.60;;
55148;SDS011;49539;48.160;11.530;2022-08-07T15:23:47;3.08;;;1.90;;
55148;SDS011;49539;48.160;11.530;2022-08-07T15:26:18;2.80;;;1.58;;
55148;SDS011;49539;48.160;11.530;2022-08-07T15:28:46;3.05;;;1.52;;
55148;SDS011;49539;48.160;11.530;2022-08-07T15:31:13;2.58;;;1.75;;
55148;SDS011;49539;48.160;11.530;2022-08-07T15:33:41;2.83;;;1.80;;
55148;SDS011;49539;48.160;11.530;2022-08-07T15:36:07;2.75;;;1.73;;
55148;SDS011;49539;48.160;11.530;2022-08-07T15:38:34;2.60;;;1.70;;
55148;SDS011;49539;48.160;11.530;2022-08-07T15:41:10;4.10;;;1.90;;
55148;SDS011;49539;48.160;11.530;2022-08-07T15:43:41;2.53;;;1.85;;
55148;SDS011;49539;48.160;11.530;2022-08-07T15:46:16;2.90;;;1.50;;
55148;SDS011;49539;48.160;11.530;2022-08-07T15:48:45;3.25;;;1.92;;
55148;SDS011;49539;48.160;11.530;2022-08-07T15:51:12;3.00;;;1.77;;
55148;SDS011;49539;48.160;11.530;2022-08-07T15:53:51;2.53;;;1.77;;
55148;SDS011;49539;48.160;11.530;2022-08-07T15:56:21;3.33;;;1.80;;
55148;SDS011;49539;48.160;11.530;2022-08-07T16:01:27;2.25;;;1.63;;
55148;SDS011;49539;48.160;11.530;2022-08-07T16:03:58;5.77;;;2.13;;
55148;SDS011;49539;48.160;11.530;2022-08-07T16:06:32;3.47;;;2.35;;
55148;SDS011;49539;48.160;11.530;2022-08-07T16:09:13;3.70;;;2.25;;
55148;SDS011;49539;48.160;11.530;2022-08-07T16:14:56;3.00;;;1.73;;
55148;SDS011;49539;48.160;11.530;2022-08-07T16:17:42;2.00;;;1.75;;
55148;SDS011;49539;48.160;11.530;2022-08-07T16:20:22;4.30;;;2.13;;
55148;SDS011;49539;48.160;11.530;2022-08-07T16:28:25;3.83;;;2.45;;
55148;SDS011;49539;48.160;11.530;2022-08-07T16:33:46;4.20;;;2.28;;
55148;SDS011;49539;48.160;11.530;2022-08-07T16:36:15;3.60;;;2.20;;
55148;SDS011;49539;48.160;11.530;2022-08-07T16:52:47;3.72;;;2.20;;
55148;SDS011;49539;48.160;11.530;2022-08-07T16:54:59;3.75;;;2.30;;
55148;SDS011;49539;48.160;11.530;2022-08-07T17:00:22;4.45;;;2.90;;
55148;SDS011;49539;48.160;11.530;2022-08-07T17:05:39;5.72;;;2.78;;
55148;SDS011;49539;48.160;11.530;2022-08-07T17:08:32;2.70;;;2.00;;
55148;SDS011;49539;48.160;11.530;2022-08-07T17:11:23;3.55;;;2.33;;
55148;SDS011;49539;48.160;11.530;2022-08-07T17:14:01;3.45;;;2.30;;
55148;SDS011;49539;48.160;11.530;2022-08-07T17:16:46;3.70;;;2.38;;
55148;SDS011;49539;48.160;11.530;2022-08-07T17:19:24;3.53;;;2.22;;
55148;SDS011;49539;48.160;11.530;2022-08-07T17:21:59;4.95;;;2.58;;
55148;SDS011;49539;48.160;11.530;2022-08-07T17:25:15;3.80;;;2.40;;
55148;SDS011;49539;48.160;11.530;2022-08-07T17:27:34;3.90;;;2.40;;
55148;SDS011;49539;48.160;11.530;2022-08-07T17:30:09;4.00;;;2.20;;
55148;SDS011;49539;48.160;11.530;2022-08-07T17:35:51;2.47;;;2.22;;
55148;SDS011;49539;48.160;11.530;2022-08-07T17:38:35;3.33;;;2.28;;
55148;SDS011;49539;48.160;11.530;2022-08-07T17:41:17;3.13;;;2.25;;
55148;SDS011;49539;48.160;11.530;2022-08-07T17:44:56;4.15;;;2.20;;
55148;SDS011;49539;48.160;11.530;2022-08-07T17:50:00;6.63;;;2.38;;
55148;SDS011;49539;48.160;11.530;2022-08-07T17:52:34;3.00;;;2.33;;
55148;SDS011;49539;48.160;11.530;2022-08-07T17:55:07;4.63;;;2.20;;
55148;SDS011;49539;48.160;11.530;2022-08-07T17:57:51;5.85;;;2.28;;
55148;SDS011;49539;48.160;11.530;2022-08-07T18:00:25;4.30;;;2.58;;
55148;SDS011;49539;48.160;11.530;2022-08-07T18:02:54;4.80;;;2.55;;
55148;SDS011;49539;48.160;11.530;2022-08-07T18:10:41;7.72;;;2.80;;
55148;SDS011;49539;48.160;11.530;2022-08-07T18:16:09;3.92;;;2.78;;
55148;SDS011;49539;48.160;11.530;2022-08-07T18:18:44;3.42;;;2.38;;
55148;SDS011;49539;48.160;11.530;2022-08-07T18:21:20;3.35;;;2.40;;
55148;SDS011;49539;48.160;11.530;2022-08-07T18:26:33;4.00;;;2.50;;
55148;SDS011;49539;48.160;11.530;2022-08-07T18:32:24;3.95;;;2.08;;
55148;SDS011;49539;48.160;11.530;2022-08-07T18:40:31;4.30;;;2.83;;
55148;SDS011;49539;48.160;11.530;2022-08-07T18:43:02;5.05;;;2.67;;
55148;SDS011;49539;48.160;11.530;2022-08-07T18:48:37;3.35;;;2.33;;
55148;SDS011;49539;48.160;11.530;2022-08-07T18:51:30;6.13;;;2.78;;